sensor_id;sensor_type;location;lat;lon;timestamp;P1;durP1;ratioP1;P2;durP2;ratioP2
6537;SDS011;3302;52.508;13.454;2023-02-26T00:00:18;4.63;;;1.40;;
6537;SDS011;3302;52.508;13.454;2023-02-26T00:02:45;2.87;;;1.50;;
6537;SDS011;3302;52.508;13.454;2023-02-26T00:05:13;2.03;;;1.27;;
6537;SDS011;3302;52.508;13.454;2023-02-26T00:07:40;3.93;;;1.30;;
6537;SDS011;3302;52.508;13.454;2023-02-26T00:10:07;2.73;;;1.30;;
6537;SDS011;3302;52.508;13.454;2023-02-26T00:12:35;4.33;;;1.63;;
6537;SDS011;3302;52.508;13.454;2023-02-26T00:15:02;3.60;;;1.40;;
6537;SDS011;3302;52.508;13.454;2023-02-26T00:17:31;3.97;;;1.90;;
6537;SDS011;3302;52.508;13.454;2023-02-26T00:19:58;4.60;;;2.53;;
6537;SDS011;3302;52.508;13.454;2023-02-26T00:22:25;2.00;;;1.20;;
6537;SDS011;3302;52.508;13.454;2023-02-26T00:24:51;3.30;;;1.40;;
6537;SDS011;3302;52.508;13.454;2023-02-26T00:27:17;2.47;;;1.27;;
6537;SDS011;3302;52.508;13.454;2023-02-26T00:29:43;3.57;;;1.50;;
6537;SDS011;3302;52.508;13.454;2023-02-26T00:32:10;2.57;;;1.23;;
6537;SDS011;3302;52.508;13.454;2023-02-26T00:34:36;2.30;;;1.67;;
6537;SDS011;3302;52.508;13.454;2023-02-26T00:39:56;3.17;;;1.33;;
6537;SDS011;3302;52.508;13.454;2023-02-26T00:42:34;3.63;;;1.47;;
6537;SDS011;3302;52.508;13.454;2023-02-26T00:45:00;5.00;;;1.20;;
6537;SDS011;3302;52.508;13.454;2023-02-26T00:50:20;1.73;;;1.30;;
6537;SDS011;3302;52.508;13.454;2023-02-26T00:55:58;4.13;;;1.20;;
6537;SDS011;3302;52.508;13.454;2023-02-26T00:58:24;2.53;;;1.53;;
6537;SDS011;3302;52.508;13.454;2023-02-26T01:00:49;2.80;;;1.30;;
6537;SDS011;3302;52.508;13.454;2023-02-26T01:03:15;2.30;;;1.30;;
6537;SDS011;3302;52.508;13.454;2023-02-26T01:05:41;2.07;;;1.30;;
6537;SDS011;3302;52.508;13.454;2023-02-26T01:08:19;2.13;;;1.10;;
6537;SDS011;3302;52.508;13.454;2023-02-26T01:10:51;2.50;;;1.30;;
6537;SDS011;3302;52.508;13.454;2023-02-26T01:13:17;1.93;;;1.00;;
6537;SDS011;3302;52.508;13.454;2023-02-26T01:15:44;2.57;;;1.23;;
6537;SDS011;3302;52.508;13.454;2023-02-26T01:18:18;2.80;;;1.20;;
6537;SDS011;3302;52.508;13.454;2023-02-26T01:20:53;3.13;;;1.30;;
6537;SDS011;3302;52.508;13.454;2023-02-26T01:23:25;3.20;;;1.50;;
6537;SDS011;3302;52.508;13.454;2023-02-26T01:25:56;2.23;;;1.00;;
6537;SDS011;3302;52.508;13.454;2023-02-26T01:28:25;2.47;;;1.13;;
6537;SDS011;3302;52.508;13.454;2023-02-26T01:30:52;2.70;;;1.13;;
6537;SDS011;3302;52.508;13.454;2023-02-26T01:38:35;2.67;;;1.20;;
6537;SDS011;3302;52.508;13.454;2023-02-26T01:41:24;4.37;;;1.30;;
6537;SDS011;3302;52.508;13.454;2023-02-26T01:49:19;3.07;;;1.50;;
6537;SDS011;3302;52.508;13.454;2023-02-26T01:51:56;3.23;;;1.13;;
6537;SDS011;3302;52.508;13.454;2023-02-26T01:54:33;2.40;;;1.10;;
6537;SDS011;3302;52.508;13.454;2023-02-26T01:57:07;1.97;;;1.20;;
6537;SDS011;3302;52.508;13.454;2023-02-26T01:59:36;2.47;;;1.07;;
6537;SDS011;3302;52.508;13.454;2023-02-26T02:02:06;3.43;;;1.00;;
6537;SDS011;3302;52.508;13.454;2023-02-26T02:04:34;4.47;;;1.20;;
6537;SDS011;3302;52.508;13.454;2023-02-26T02:07:01;2.77;;;1.10;;
6537;SDS011;3302;52.508;13.454;2023-02-26T02:09:29;2.17;;;1.20;;
6537;SDS011;3302;52.508;13.454;2023-02-26T02:36:40;4.90;;;1.60;;
6537;SDS011;3302;52.508;13.454;2023-02-26T02:39:59;1.63;;;1.20;;
6537;SDS011;3302;52.508;13.454;2023-02-26T02:42:15;3.23;;;1.30;;
6537;SDS011;3302;52.508;13.454;2023-02-26T02:44:44;5.23;;;1.40;;
6537;SDS011;3302;52.508;13.454;2023-02-26T02:47:14;3.83;;;1.00;;
6537;SDS011;3302;52.508;13.454;2023-02-26T02:52:13;2.57;;;1.40;;
6537;SDS011;3302;52.508;13.454;2023-02-26T02:54:43;3.23;;;1.20;;
6537;SDS011;3302;52.508;13.454;2023-02-26T02:57:18;3.57;;;1.40;;
6537;SDS011;3302;52.508;13.454;2023-02-26T02:59:50;2.83;;;1.13;;
6537;SDS011;3302;52.508;13.454;2023-02-26T03:02:21;2.00;;;1.10;;
6537;SDS011;3302;52.508;13.454;2023-02-26T03:05:06;3.93;;;1.03;;
6537;SDS011;3302;52.508;13.454;2023-02-26T03:07:33;2.90;;;1.00;;
6537;SDS011;3302;52.508;13.454;2023-02-26T03:10:14;2.63;;;1.00;;
6537;SDS011;3302;52.508;13.454;2023-02-26T03:12:41;2.00;;;1.00;;
6537;SDS011;3302;52.508;13.454;2023-02-26T03:15:07;3.80;;;1.07;;
6537;SDS011;3302;52.508;13.454;2023-02-26T03:20:34;2.10;;;0.90;;
6537;SDS011;3302;52.508;13.454;2023-02-26T03:23:08;2.33;;;1.07;;
6537;SDS011;3302;52.508;13.454;2023-02-26T03:28:19;1.43;;;1.00;;
6537;SDS011;3302;52.508;13.454;2023-02-26T03:36:24;2.10;;;1.27;;
6537;SDS011;3302;52.508;13.454;2023-02-26T03:38:57;2.47;;;1.27;;
6537;SDS011;3302;52.508;13.454;2023-02-26T03:41:54;1.93;;;1.10;;
6537;SDS011;3302;52.508;13.454;2023-02-26T03:44:25;3.27;;;1.00;;
6537;SDS011;3302;52.508;13.454;2023-02-26T03:46:57;4.00;;;1.10;;
6537;SDS011;3302;52.508;13.454;2023-02-26T03:49:40;2.57;;;1.10;;
6537;SDS011;3302;52.508;13.454;2023-02-26T03:52:19;3.03;;;1.03;;
6537;SDS011;3302;52.508;13.454;2023-02-26T03:54:50;2.33;;;1.10;;
6537;SDS011;3302;52.508;13.454;2023-02-26T03:57:26;2.27;;;1.03;;
6537;SDS011;3302;52.508;13.454;2023-02-26T03:59:52;3.87;;;1.13;;
6537;SDS011;3302;52.508;13.454;2023-02-26T04:02:19;1.80;;;0.93;;
6537;SDS011;3302;52.508;13.454;2023-02-26T04:05:33;2.73;;;0.87;;
6537;SDS011;3302;52.508;13.454;2023-02-26T04:07:42;2.27;;;1.20;;
6537;SDS011;3302;52.508;13.454;2023-02-26T04:10:09;3.97;;;1.07;;
6537;SDS011;3302;52.508;13.454;2023-02-26T04:12:38;1.90;;;1.07;;
6537;SDS011;3302;52.508;13.454;2023-02-26T04:15:04;2.30;;;0.90;;
6537;SDS011;3302;52.508;13.454;2023-02-26T04:17:31;4.07;;;1.50;;
6537;SDS011;3302;52.508;13.454;2023-02-26T04:19:56;2.30;;;1.00;;
6537;SDS011;3302;52.508;13.454;2023-02-26T04:22:22;1.77;;;0.90;;
6537;SDS011;3302;52.508;13.454;2023-02-26T04:24:48;2.23;;;1.20;;
6537;SDS011;3302;52.508;13.454;2023-02-26T04:27:14;2.97;;;1.17;;
6537;SDS011;3302;52.508;13.454;2023-02-26T04:29:39;2.40;;;1.10;;
6537;SDS011;3302;52.508;13.454;2023-02-26T04:32:05;2.47;;;1.40;;
6537;SDS011;3302;52.508;13.454;2023-02-26T04:34:31;2.93;;;1.10;;
6537;SDS011;3302;52.508;13.454;2023-02-26T04:36:57;3.57;;;1.10;;
6537;SDS011;3302;52.508;13.454;2023-02-26T04:39:22;2.00;;;1.00;;
6537;SDS011;3302;52.508;13.454;2023-02-26T04:41:48;3.10;;;1.30;;
6537;SDS011;3302;52.508;13.454;2023-02-26T04:44:14;3.53;;;1.13;;
6537;SDS011;3302;52.508;13.454;2023-02-26T04:46:40;4.30;;;1.30;;
6537;SDS011;3302;52.508;13.454;2023-02-26T04:49:06;2.23;;;1.40;;
6537;SDS011;3302;52.508;13.454;2023-02-26T04:51:31;3.23;;;1.40;;
6537;SDS011;3302;52.508;13.454;2023-02-26T04:53:57;3.43;;;1.40;;
6537;SDS011;3302;52.508;13.454;2023-02-26T04:56:23;2.10;;;1.17;;
6537;SDS011;3302;52.508;13.454;2023-02-26T04:58:49;2.20;;;1.37;;
6537;SDS011;3302;52.508;13.454;2023-02-26T05:01:14;4.17;;;1.70;;
6537;SDS011;3302;52.508;13.454;2023-02-26T05:03:40;2.97;;;1.20;;
6537;SDS011;3302;52.508;13.454;2023-02-26T05:06:06;4.03;;;1.30;;
6537;SDS011;3302;52.508;13.454;2023-02-26T05:08:32;3.40;;;1.20;;
6537;SDS011;3302;52.508;13.454;2023-02-26T05:10:58;2.23;;;1.20;;
6537;SDS011;3302;52.508;13.454;2023-02-26T05:13:24;1.87;;;1.10;;
6537;SDS011;3302;52.508;13.454;2023-02-26T05:15:52;2.00;;;0.90;;
6537;SDS011;3302;52.508;13.454;2023-02-26T05:18:18;2.27;;;1.10;;
6537;SDS011;3302;52.508;13.454;2023-02-26T05:20:44;2.80;;;1.10;;
6537;SDS011;3302;52.508;13.454;2023-02-26T05:23:10;3.60;;;1.27;;
6537;SDS011;3302;52.508;13.454;2023-02-26T05:25:36;1.93;;;1.03;;
6537;SDS011;3302;52.508;13.454;2023-02-26T05:28:02;2.37;;;1.00;;
6537;SDS011;3302;52.508;13.454;2023-02-26T05:30:27;2.40;;;1.10;;
6537;SDS011;3302;52.508;13.454;2023-02-26T05:32:53;2.57;;;1.00;;
6537;SDS011;3302;52.508;13.454;2023-02-26T05:35:19;1.47;;;0.90;;
6537;SDS011;3302;52.508;13.454;2023-02-26T05:37:45;2.73;;;0.87;;
6537;SDS011;3302;52.508;13.454;2023-02-26T05:40:11;1.87;;;1.00;;
6537;SDS011;3302;52.508;13.454;2023-02-26T05:42:38;2.23;;;1.13;;
6537;SDS011;3302;52.508;13.454;2023-02-26T05:45:04;1.37;;;0.80;;
6537;SDS011;3302;52.508;13.454;2023-02-26T05:47:32;2.50;;;1.10;;
6537;SDS011;3302;52.508;13.454;2023-02-26T05:49:58;1.23;;;1.00;;
6537;SDS011;3302;52.508;13.454;2023-02-26T05:52:24;2.67;;;1.00;;
6537;SDS011;3302;52.508;13.454;2023-02-26T05:54:50;2.47;;;1.03;;
6537;SDS011;3302;52.508;13.454;2023-02-26T05:57:16;1.87;;;0.80;;
6537;SDS011;3302;52.508;13.454;2023-02-26T05:59:41;2.50;;;0.90;;
6537;SDS011;3302;52.508;13.454;2023-02-26T06:02:07;2.00;;;1.03;;
6537;SDS011;3302;52.508;13.454;2023-02-26T06:04:33;1.37;;;0.90;;
6537;SDS011;3302;52.508;13.454;2023-02-26T06:07:00;1.37;;;0.70;;
6537;SDS011;3302;52.508;13.454;2023-02-26T06:09:26;1.33;;;0.97;;
6537;SDS011;3302;52.508;13.454;2023-02-26T06:11:52;2.07;;;1.00;;
6537;SDS011;3302;52.508;13.454;2023-02-26T06:14:18;5.10;;;1.97;;
6537;SDS011;3302;52.508;13.454;2023-02-26T06:16:44;3.90;;;1.00;;
6537;SDS011;3302;52.508;13.454;2023-02-26T06:19:10;3.13;;;1.10;;
6537;SDS011;3302;52.508;13.454;2023-02-26T06:21:36;2.00;;;1.30;;
6537;SDS011;3302;52.508;13.454;2023-02-26T06:24:02;2.07;;;0.80;;
6537;SDS011;3302;52.508;13.454;2023-02-26T06:26:28;2.50;;;1.00;;
6537;SDS011;3302;52.508;13.454;2023-02-26T06:28:53;2.17;;;1.10;;
6537;SDS011;3302;52.508;13.454;2023-02-26T06:31:19;3.03;;;1.00;;
6537;SDS011;3302;52.508;13.454;2023-02-26T06:33:45;1.40;;;1.07;;
6537;SDS011;3302;52.508;13.454;2023-02-26T06:36:11;3.23;;;0.90;;
6537;SDS011;3302;52.508;13.454;2023-02-26T06:38:36;4.03;;;1.23;;
6537;SDS011;3302;52.508;13.454;2023-02-26T06:41:02;3.57;;;0.80;;
6537;SDS011;3302;52.508;13.454;2023-02-26T06:43:28;3.03;;;1.20;;
6537;SDS011;3302;52.508;13.454;2023-02-26T06:45:57;2.47;;;1.10;;
6537;SDS011;3302;52.508;13.454;2023-02-26T06:48:24;2.53;;;0.87;;
6537;SDS011;3302;52.508;13.454;2023-02-26T06:50:50;3.17;;;0.83;;
6537;SDS011;3302;52.508;13.454;2023-02-26T06:53:15;1.77;;;1.00;;
6537;SDS011;3302;52.508;13.454;2023-02-26T06:55:45;4.83;;;1.27;;
6537;SDS011;3302;52.508;13.454;2023-02-26T06:58:12;2.20;;;1.10;;
6537;SDS011;3302;52.508;13.454;2023-02-26T07:00:38;2.43;;;0.90;;
6537;SDS011;3302;52.508;13.454;2023-02-26T07:03:05;2.23;;;1.00;;
6537;SDS011;3302;52.508;13.454;2023-02-26T07:05:33;2.17;;;1.07;;
6537;SDS011;3302;52.508;13.454;2023-02-26T07:07:59;1.80;;;1.00;;
6537;SDS011;3302;52.508;13.454;2023-02-26T07:10:25;1.43;;;0.90;;
6537;SDS011;3302;52.508;13.454;2023-02-26T07:12:51;2.80;;;1.20;;
6537;SDS011;3302;52.508;13.454;2023-02-26T07:15:17;3.17;;;1.60;;
6537;SDS011;3302;52.508;13.454;2023-02-26T07:17:42;2.07;;;1.13;;
6537;SDS011;3302;52.508;13.454;2023-02-26T07:20:08;1.40;;;0.97;;
6537;SDS011;3302;52.508;13.454;2023-02-26T07:22:36;2.80;;;1.10;;
6537;SDS011;3302;52.508;13.454;2023-02-26T07:25:03;3.43;;;1.10;;
6537;SDS011;3302;52.508;13.454;2023-02-26T07:27:29;2.63;;;1.20;;
6537;SDS011;3302;52.508;13.454;2023-02-26T07:29:57;2.67;;;1.27;;
6537;SDS011;3302;52.508;13.454;2023-02-26T07:32:24;2.73;;;1.13;;
6537;SDS011;3302;52.508;13.454;2023-02-26T07:34:50;2.33;;;1.00;;
6537;SDS011;3302;52.508;13.454;2023-02-26T07:37:16;1.80;;;1.00;;
6537;SDS011;3302;52.508;13.454;2023-02-26T07:39:42;1.43;;;1.10;;
6537;SDS011;3302;52.508;13.454;2023-02-26T07:42:08;3.33;;;1.23;;
6537;SDS011;3302;52.508;13.454;2023-02-26T07:44:34;2.10;;;1.20;;
6537;SDS011;3302;52.508;13.454;2023-02-26T07:47:00;2.27;;;1.10;;
6537;SDS011;3302;52.508;13.454;2023-02-26T07:49:26;2.37;;;1.03;;
6537;SDS011;3302;52.508;13.454;2023-02-26T07:51:52;4.27;;;1.00;;
6537;SDS011;3302;52.508;13.454;2023-02-26T07:54:18;1.93;;;1.30;;
6537;SDS011;3302;52.508;13.454;2023-02-26T07:56:44;2.43;;;1.40;;
6537;SDS011;3302;52.508;13.454;2023-02-26T07:59:10;4.10;;;1.23;;
6537;SDS011;3302;52.508;13.454;2023-02-26T08:01:36;1.97;;;1.00;;
6537;SDS011;3302;52.508;13.454;2023-02-26T08:04:02;5.87;;;1.30;;
6537;SDS011;3302;52.508;13.454;2023-02-26T08:06:29;2.07;;;1.10;;
6537;SDS011;3302;52.508;13.454;2023-02-26T08:08:55;2.33;;;1.40;;
6537;SDS011;3302;52.508;13.454;2023-02-26T08:11:20;3.13;;;1.43;;
6537;SDS011;3302;52.508;13.454;2023-02-26T08:13:46;2.47;;;1.00;;
6537;SDS011;3302;52.508;13.454;2023-02-26T08:16:12;2.53;;;1.10;;
6537;SDS011;3302;52.508;13.454;2023-02-26T08:18:38;2.93;;;1.40;;
6537;SDS011;3302;52.508;13.454;2023-02-26T08:21:04;1.83;;;1.20;;
6537;SDS011;3302;52.508;13.454;2023-02-26T08:23:30;1.80;;;1.10;;
6537;SDS011;3302;52.508;13.454;2023-02-26T08:26:03;2.03;;;1.40;;
6537;SDS011;3302;52.508;13.454;2023-02-26T08:28:31;3.50;;;0.93;;
6537;SDS011;3302;52.508;13.454;2023-02-26T08:30:58;3.83;;;1.20;;
6537;SDS011;3302;52.508;13.454;2023-02-26T08:33:24;3.33;;;1.37;;
6537;SDS011;3302;52.508;13.454;2023-02-26T08:35:50;2.60;;;1.10;;
6537;SDS011;3302;52.508;13.454;2023-02-26T08:38:18;2.87;;;1.10;;
6537;SDS011;3302;52.508;13.454;2023-02-26T08:40:44;2.90;;;1.23;;
6537;SDS011;3302;52.508;13.454;2023-02-26T08:43:13;1.60;;;1.10;;
6537;SDS011;3302;52.508;13.454;2023-02-26T08:45:38;2.03;;;1.20;;
6537;SDS011;3302;52.508;13.454;2023-02-26T08:48:04;2.00;;;1.00;;
6537;SDS011;3302;52.508;13.454;2023-02-26T08:50:30;2.80;;;1.40;;
6537;SDS011;3302;52.508;13.454;2023-02-26T08:52:56;2.50;;;1.10;;
6537;SDS011;3302;52.508;13.454;2023-02-26T08:55:23;3.10;;;1.80;;
6537;SDS011;3302;52.508;13.454;2023-02-26T08:57:49;3.00;;;1.57;;
6537;SDS011;3302;52.508;13.454;2023-02-26T09:00:15;2.50;;;0.90;;
6537;SDS011;3302;52.508;13.454;2023-02-26T09:02:42;2.70;;;1.30;;
6537;SDS011;3302;52.508;13.454;2023-02-26T09:05:09;1.90;;;1.00;;
6537;SDS011;3302;52.508;13.454;2023-02-26T09:07:36;4.07;;;1.30;;
6537;SDS011;3302;52.508;13.454;2023-02-26T09:10:04;2.37;;;1.13;;
6537;SDS011;3302;52.508;13.454;2023-02-26T09:12:30;1.77;;;1.20;;
6537;SDS011;3302;52.508;13.454;2023-02-26T09:14:56;3.17;;;1.50;;
6537;SDS011;3302;52.508;13.454;2023-02-26T09:17:23;3.80;;;1.70;;
6537;SDS011;3302;52.508;13.454;2023-02-26T09:19:50;3.60;;;1.70;;
6537;SDS011;3302;52.508;13.454;2023-02-26T09:22:15;2.73;;;1.93;;
6537;SDS011;3302;52.508;13.454;2023-02-26T09:24:41;3.43;;;1.70;;
6537;SDS011;3302;52.508;13.454;2023-02-26T09:27:07;2.37;;;1.60;;
6537;SDS011;3302;52.508;13.454;2023-02-26T09:29:33;2.10;;;1.13;;
6537;SDS011;3302;52.508;13.454;2023-02-26T09:31:59;3.13;;;1.33;;
6537;SDS011;3302;52.508;13.454;2023-02-26T09:34:26;2.60;;;1.30;;
6537;SDS011;3302;52.508;13.454;2023-02-26T09:36:51;3.13;;;1.23;;
6537;SDS011;3302;52.508;13.454;2023-02-26T09:39:17;5.00;;;1.77;;
6537;SDS011;3302;52.508;13.454;2023-02-26T09:41:46;4.47;;;1.60;;
6537;SDS011;3302;52.508;13.454;2023-02-26T09:44:23;2.87;;;1.20;;
6537;SDS011;3302;52.508;13.454;2023-02-26T09:50:00;4.10;;;1.40;;
6537;SDS011;3302;52.508;13.454;2023-02-26T09:52:46;4.13;;;2.00;;
6537;SDS011;3302;52.508;13.454;2023-02-26T09:55:33;3.50;;;1.77;;
6537;SDS011;3302;52.508;13.454;2023-02-26T09:58:30;2.33;;;1.03;;
6537;SDS011;3302;52.508;13.454;2023-02-26T10:04:02;2.17;;;1.10;;
6537;SDS011;3302;52.508;13.454;2023-02-26T10:07:11;1.57;;;1.00;;
6537;SDS011;3302;52.508;13.454;2023-02-26T10:09:50;2.10;;;1.00;;
6537;SDS011;3302;52.508;13.454;2023-02-26T10:12:24;2.60;;;1.20;;
6537;SDS011;3302;52.508;13.454;2023-02-26T10:15:10;2.93;;;1.10;;
6537;SDS011;3302;52.508;13.454;2023-02-26T10:18:00;4.03;;;1.30;;
6537;SDS011;3302;52.508;13.454;2023-02-26T10:20:38;2.03;;;1.13;;
6537;SDS011;3302;52.508;13.454;2023-02-26T10:23:25;3.53;;;1.50;;
6537;SDS011;3302;52.508;13.454;2023-02-26T10:26:10;2.27;;;1.20;;
6537;SDS011;3302;52.508;13.454;2023-02-26T10:34:34;2.53;;;1.20;;
6537;SDS011;3302;52.508;13.454;2023-02-26T10:39:56;3.87;;;1.20;;
6537;SDS011;3302;52.508;13.454;2023-02-26T10:42:47;3.73;;;1.20;;
6537;SDS011;3302;52.508;13.454;2023-02-26T10:49:01;1.83;;;0.70;;
6537;SDS011;3302;52.508;13.454;2023-02-26T10:51:36;2.70;;;1.20;;
6537;SDS011;3302;52.508;13.454;2023-02-26T10:57:03;1.53;;;1.03;;
6537;SDS011;3302;52.508;13.454;2023-02-26T10:59:29;2.60;;;1.40;;
6537;SDS011;3302;52.508;13.454;2023-02-26T11:01:55;2.77;;;1.20;;
6537;SDS011;3302;52.508;13.454;2023-02-26T11:04:23;5.57;;;1.60;;
6537;SDS011;3302;52.508;13.454;2023-02-26T11:09:19;2.67;;;1.23;;
6537;SDS011;3302;52.508;13.454;2023-02-26T11:12:16;2.83;;;1.50;;
6537;SDS011;3302;52.508;13.454;2023-02-26T11:14:43;3.73;;;1.23;;
6537;SDS011;3302;52.508;13.454;2023-02-26T11:17:24;1.87;;;0.93;;
6537;SDS011;3302;52.508;13.454;2023-02-26T11:19:58;1.90;;;1.13;;
6537;SDS011;3302;52.508;13.454;2023-02-26T11:22:28;2.13;;;1.20;;
6537;SDS011;3302;52.508;13.454;2023-02-26T11:24:56;1.33;;;0.70;;
6537;SDS011;3302;52.508;13.454;2023-02-26T11:27:29;1.60;;;0.93;;
6537;SDS011;3302;52.508;13.454;2023-02-26T11:30:14;2.63;;;1.27;;
6537;SDS011;3302;52.508;13.454;2023-02-26T11:32:43;2.77;;;1.10;;
6537;SDS011;3302;52.508;13.454;2023-02-26T11:35:14;2.20;;;1.00;;
6537;SDS011;3302;52.508;13.454;2023-02-26T11:37:47;5.80;;;1.20;;
6537;SDS011;3302;52.508;13.454;2023-02-26T11:40:21;1.63;;;0.90;;
6537;SDS011;3302;52.508;13.454;2023-02-26T11:42:55;2.00;;;1.20;;
6537;SDS011;3302;52.508;13.454;2023-02-26T11:45:23;2.23;;;1.10;;
6537;SDS011;3302;52.508;13.454;2023-02-26T11:47:55;2.77;;;0.80;;
6537;SDS011;3302;52.508;13.454;2023-02-26T11:50:26;3.50;;;1.43;;
6537;SDS011;3302;52.508;13.454;2023-02-26T11:52:55;2.07;;;1.10;;
6537;SDS011;3302;52.508;13.454;2023-02-26T11:55:31;4.20;;;1.50;;
6537;SDS011;3302;52.508;13.454;2023-02-26T11:57:58;2.80;;;1.27;;
6537;SDS011;3302;52.508;13.454;2023-02-26T12:00:27;2.67;;;1.30;;
6537;SDS011;3302;52.508;13.454;2023-02-26T12:02:59;2.43;;;1.03;;
6537;SDS011;3302;52.508;13.454;2023-02-26T12:05:32;2.63;;;1.17;;
6537;SDS011;3302;52.508;13.454;2023-02-26T12:07:58;2.93;;;1.17;;
6537;SDS011;3302;52.508;13.454;2023-02-26T12:11:10;2.77;;;1.10;;
6537;SDS011;3302;52.508;13.454;2023-02-26T12:19:23;2.80;;;1.10;;
6537;SDS011;3302;52.508;13.454;2023-02-26T12:27:40;2.53;;;1.10;;
6537;SDS011;3302;52.508;13.454;2023-02-26T12:30:20;4.60;;;1.37;;
6537;SDS011;3302;52.508;13.454;2023-02-26T12:32:57;3.13;;;1.17;;
6537;SDS011;3302;52.508;13.454;2023-02-26T12:38:19;2.10;;;1.00;;
6537;SDS011;3302;52.508;13.454;2023-02-26T12:40:49;2.00;;;0.90;;
6537;SDS011;3302;52.508;13.454;2023-02-26T12:54:28;2.27;;;1.20;;
6537;SDS011;3302;52.508;13.454;2023-02-26T13:05:30;2.67;;;1.60;;
6537;SDS011;3302;52.508;13.454;2023-02-26T13:08:03;2.60;;;0.97;;
6537;SDS011;3302;52.508;13.454;2023-02-26T13:15:57;5.37;;;1.10;;
6537;SDS011;3302;52.508;13.454;2023-02-26T13:18:41;4.93;;;1.20;;
6537;SDS011;3302;52.508;13.454;2023-02-26T13:21:41;2.13;;;1.30;;
6537;SDS011;3302;52.508;13.454;2023-02-26T13:24:37;1.30;;;1.00;;
6537;SDS011;3302;52.508;13.454;2023-02-26T13:27:25;1.47;;;0.90;;
6537;SDS011;3302;52.508;13.454;2023-02-26T13:29:59;2.27;;;1.20;;
6537;SDS011;3302;52.508;13.454;2023-02-26T13:32:30;2.07;;;1.20;;
6537;SDS011;3302;52.508;13.454;2023-02-26T13:34:59;4.13;;;1.63;;
6537;SDS011;3302;52.508;13.454;2023-02-26T13:37:38;2.27;;;1.20;;
6537;SDS011;3302;52.508;13.454;2023-02-26T13:42:45;3.13;;;1.20;;
6537;SDS011;3302;52.508;13.454;2023-02-26T13:53:45;2.90;;;1.40;;
6537;SDS011;3302;52.508;13.454;2023-02-26T14:01:59;3.07;;;1.30;;
6537;SDS011;3302;52.508;13.454;2023-02-26T14:04:27;2.67;;;1.10;;
6537;SDS011;3302;52.508;13.454;2023-02-26T14:07:13;2.57;;;1.20;;
6537;SDS011;3302;52.508;13.454;2023-02-26T14:09:44;3.33;;;1.13;;
6537;SDS011;3302;52.508;13.454;2023-02-26T14:18:19;2.03;;;1.20;;
6537;SDS011;3302;52.508;13.454;2023-02-26T14:20:25;1.83;;;1.10;;
6537;SDS011;3302;52.508;13.454;2023-02-26T14:25:36;2.40;;;1.13;;
6537;SDS011;3302;52.508;13.454;2023-02-26T14:30:51;1.40;;;1.00;;
6537;SDS011;3302;52.508;13.454;2023-02-26T14:33:27;1.50;;;1.00;;
6537;SDS011;3302;52.508;13.454;2023-02-26T14:35:54;1.90;;;1.30;;
6537;SDS011;3302;52.508;13.454;2023-02-26T14:38:23;2.27;;;1.30;;
6537;SDS011;3302;52.508;13.454;2023-02-26T14:43:37;1.70;;;1.00;;
6537;SDS011;3302;52.508;13.454;2023-02-26T14:46:03;2.70;;;1.20;;
6537;SDS011;3302;52.508;13.454;2023-02-26T14:48:31;3.10;;;1.23;;
6537;SDS011;3302;52.508;13.454;2023-02-26T14:56:16;3.03;;;1.43;;
6537;SDS011;3302;52.508;13.454;2023-02-26T14:58:48;1.37;;;0.70;;
6537;SDS011;3302;52.508;13.454;2023-02-26T15:07:07;2.27;;;1.00;;
6537;SDS011;3302;52.508;13.454;2023-02-26T15:22:47;2.90;;;1.30;;
6537;SDS011;3302;52.508;13.454;2023-02-26T15:25:31;1.60;;;1.20;;
6537;SDS011;3302;52.508;13.454;2023-02-26T15:28:04;2.90;;;1.70;;
6537;SDS011;3302;52.508;13.454;2023-02-26T15:30:33;2.73;;;1.40;;
6537;SDS011;3302;52.508;13.454;2023-02-26T15:33:02;2.53;;;1.57;;
6537;SDS011;3302;52.508;13.454;2023-02-26T15:35:29;2.83;;;1.50;;
6537;SDS011;3302;52.508;13.454;2023-02-26T15:37:58;2.50;;;1.90;;
6537;SDS011;3302;52.508;13.454;2023-02-26T15:40:30;3.23;;;1.80;;
6537;SDS011;3302;52.508;13.454;2023-02-26T15:42:59;1.57;;;0.90;;
6537;SDS011;3302;52.508;13.454;2023-02-26T15:45:27;1.90;;;1.20;;
6537;SDS011;3302;52.508;13.454;2023-02-26T15:48:12;1.77;;;1.10;;
6537;SDS011;3302;52.508;13.454;2023-02-26T15:50:45;2.50;;;1.17;;
6537;SDS011;3302;52.508;13.454;2023-02-26T15:53:18;1.93;;;1.10;;
6537;SDS011;3302;52.508;13.454;2023-02-26T15:56:09;3.10;;;1.40;;
6537;SDS011;3302;52.508;13.454;2023-02-26T15:58:43;1.97;;;1.30;;
6537;SDS011;3302;52.508;13.454;2023-02-26T16:01:21;2.67;;;1.33;;
6537;SDS011;3302;52.508;13.454;2023-02-26T16:03:49;3.90;;;2.77;;
6537;SDS011;3302;52.508;13.454;2023-02-26T16:06:19;5.30;;;2.30;;
6537;SDS011;3302;52.508;13.454;2023-02-26T16:08:59;3.20;;;1.80;;
6537;SDS011;3302;52.508;13.454;2023-02-26T16:11:30;3.43;;;1.53;;
6537;SDS011;3302;52.508;13.454;2023-02-26T16:13:59;2.27;;;1.47;;
6537;SDS011;3302;52.508;13.454;2023-02-26T16:16:27;2.37;;;1.50;;
6537;SDS011;3302;52.508;13.454;2023-02-26T16:19:00;2.30;;;1.50;;
6537;SDS011;3302;52.508;13.454;2023-02-26T16:23:54;2.90;;;1.67;;
6537;SDS011;3302;52.508;13.454;2023-02-26T16:26:27;2.67;;;1.67;;
6537;SDS011;3302;52.508;13.454;2023-02-26T16:29:17;3.23;;;1.70;;
6537;SDS011;3302;52.508;13.454;2023-02-26T16:31:56;2.47;;;1.50;;
6537;SDS011;3302;52.508;13.454;2023-02-26T16:37:42;4.20;;;1.30;;
6537;SDS011;3302;52.508;13.454;2023-02-26T16:48:00;1.80;;;1.20;;
6537;SDS011;3302;52.508;13.454;2023-02-26T16:50:30;2.07;;;1.40;;
6537;SDS011;3302;52.508;13.454;2023-02-26T16:53:00;3.67;;;1.60;;
6537;SDS011;3302;52.508;13.454;2023-02-26T16:55:34;3.23;;;2.10;;
6537;SDS011;3302;52.508;13.454;2023-02-26T16:58:02;3.93;;;1.87;;
6537;SDS011;3302;52.508;13.454;2023-02-26T17:00:31;2.43;;;2.00;;
6537;SDS011;3302;52.508;13.454;2023-02-26T17:03:19;3.03;;;1.87;;
6537;SDS011;3302;52.508;13.454;2023-02-26T17:06:30;3.50;;;2.00;;
6537;SDS011;3302;52.508;13.454;2023-02-26T17:08:46;3.47;;;2.20;;
6537;SDS011;3302;52.508;13.454;2023-02-26T17:11:18;3.87;;;2.30;;
6537;SDS011;3302;52.508;13.454;2023-02-26T17:13:56;4.40;;;1.83;;
6537;SDS011;3302;52.508;13.454;2023-02-26T17:16:47;4.13;;;1.87;;
6537;SDS011;3302;52.508;13.454;2023-02-26T17:19:13;2.27;;;1.57;;
6537;SDS011;3302;52.508;13.454;2023-02-26T17:21:47;3.07;;;1.67;;
6537;SDS011;3302;52.508;13.454;2023-02-26T17:27:15;4.87;;;1.60;;
6537;SDS011;3302;52.508;13.454;2023-02-26T17:29:52;4.40;;;2.17;;
6537;SDS011;3302;52.508;13.454;2023-02-26T17:32:20;3.57;;;2.00;;
6537;SDS011;3302;52.508;13.454;2023-02-26T17:34:49;3.57;;;1.90;;
6537;SDS011;3302;52.508;13.454;2023-02-26T17:37:15;4.20;;;2.00;;
6537;SDS011;3302;52.508;13.454;2023-02-26T17:39:41;5.10;;;2.70;;
6537;SDS011;3302;52.508;13.454;2023-02-26T17:42:09;7.07;;;3.30;;
6537;SDS011;3302;52.508;13.454;2023-02-26T17:44:36;4.67;;;2.13;;
6537;SDS011;3302;52.508;13.454;2023-02-26T17:47:02;6.30;;;2.90;;
6537;SDS011;3302;52.508;13.454;2023-02-26T17:49:28;2.33;;;1.73;;
6537;SDS011;3302;52.508;13.454;2023-02-26T17:51:53;2.93;;;1.80;;
6537;SDS011;3302;52.508;13.454;2023-02-26T17:54:19;7.87;;;3.10;;
6537;SDS011;3302;52.508;13.454;2023-02-26T17:56:45;6.13;;;2.60;;
6537;SDS011;3302;52.508;13.454;2023-02-26T17:59:11;5.60;;;2.43;;
6537;SDS011;3302;52.508;13.454;2023-02-26T18:01:37;2.63;;;1.63;;
6537;SDS011;3302;52.508;13.454;2023-02-26T18:04:03;2.20;;;1.27;;
6537;SDS011;3302;52.508;13.454;2023-02-26T18:06:32;2.90;;;1.60;;
6537;SDS011;3302;52.508;13.454;2023-02-26T18:08:59;1.80;;;1.23;;
6537;SDS011;3302;52.508;13.454;2023-02-26T18:11:25;2.93;;;1.83;;
6537;SDS011;3302;52.508;13.454;2023-02-26T18:13:51;3.30;;;2.00;;
6537;SDS011;3302;52.508;13.454;2023-02-26T18:16:20;5.93;;;2.97;;
6537;SDS011;3302;52.508;13.454;2023-02-26T18:18:53;2.90;;;1.83;;
6537;SDS011;3302;52.508;13.454;2023-02-26T18:21:19;5.27;;;2.67;;
6537;SDS011;3302;52.508;13.454;2023-02-26T18:23:45;4.47;;;2.50;;
6537;SDS011;3302;52.508;13.454;2023-02-26T18:26:11;3.10;;;2.43;;
6537;SDS011;3302;52.508;13.454;2023-02-26T18:28:40;4.83;;;2.10;;
6537;SDS011;3302;52.508;13.454;2023-02-26T18:31:06;5.23;;;2.77;;